Latest Weather Observations for Essendon Airport

IDV60801

Issued at 10:02 pm EST Thursday 20 June 2019 (issued every 10 minutes, with the page automatically refreshed every 10 minutes)

About weather observations | Map of weather stations | Latest weather observations for VIC | Other Formats
Station Details ID: 086038 Name: ESSENDON AIRPORT Lat: -37.73 Lon: 144.91 Height: 78.4 m
Data from the previous 72 hours. | See also: Recent months at Essendon Airport
Date/Time
EST
Temp
°C
App
Temp
°C
Dew
Point
°C
Rel
Hum
%
Delta-T
°C
Wind Press
QNH
hPa
Press
MSL
hPa
Rain since
9am
mm
Dir  Spd
km/h
Gust
km/h
Spd
kts
Gust
kts
20/10:00pm 6.5 3.3 5.1 91 0.6 WNW 11 15 6 8 1026.7 1026.9 0.4
20/09:30pm 6.6 3.9 5.6 93 0.4 W 9 11 5 6 1026.7 1026.9 0.4
20/09:00pm 6.4 3.0 5.7 95 0.3 W 13 17 7 9 1026.4 1026.6 0.4
20/08:30pm 6.2 3.0 5.3 94 0.4 W 11 13 6 7 1026.4 1026.6 0.4
20/08:00pm 6.7 2.8 5.5 92 0.5 W 15 19 8 10 1026.4 1026.6 0.4
20/07:30pm 7.4 3.6 6.0 91 0.6 W 15 19 8 10 1026.2 1026.4 0.2
20/07:00pm 7.7 3.9 5.8 88 0.9 WSW 15 17 8 9 1026.1 1026.3 0.0
20/06:30pm 8.0 4.2 6.0 87 0.9 WSW 15 19 8 10 1025.8 1026.0 0.0
20/06:00pm 8.6 5.3 6.2 85 1.1 WSW 13 19 7 10 1025.4 1025.6 0.0
20/05:30pm 8.7 5.4 6.2 84 1.2 WSW 13 15 7 8 1025.3 1025.5 0.0
20/05:00pm 8.8 5.4 5.9 82 1.3 SW 13 17 7 9 1024.8 1025.0 0.0
20/04:30pm 9.1 5.6 5.5 78 1.6 SW 13 17 7 9 1024.7 1024.8 0.0
20/04:00pm 9.1 4.9 5.5 78 1.6 SSW 17 20 9 11 1024.7 1024.8 0.0
20/03:30pm 9.2 4.5 5.9 80 1.5 SSW 20 30 11 16 1024.6 1024.7 0.0
20/03:00pm 9.5 4.8 6.2 80 1.5 SW 20 28 11 15 1024.6 1024.7 0.0
20/02:30pm 9.6 5.0 6.3 80 1.5 SW 20 24 11 13 1024.6 1024.7 0.0
20/02:00pm 9.9 4.5 6.3 78 1.7 SW 24 28 13 15 1024.6 1024.7 0.0
20/01:30pm 10.3 5.9 6.6 78 1.7 SW 19 26 10 14 1024.7 1024.8 0.0
20/01:00pm 9.1 5.0 6.2 82 1.3 WSW 17 20 9 11 1025.1 1025.3 0.0
20/12:43pm 9.1 5.1 6.5 84 1.2 SW 17 20 9 11 1025.3 1025.5 0.0
20/12:30pm 9.0 5.7 6.4 84 1.2 SW 13 20 7 11 1025.4 1025.6 0.0
20/12:04pm 8.6 6.1 6.6 87 0.9 WSW 9 11 5 6 1025.7 1025.9 0.0
20/12:00pm 8.7 6.2 6.7 87 0.9 WSW 9 11 5 6 1025.8 1026.0 0.0
20/11:30am 8.4 5.9 6.7 89 0.8 W 9 13 5 7 1026.2 1026.4 0.0
20/11:00am 8.0 5.5 6.6 91 0.6 WSW 9 15 5 8 1026.4 1026.6 0.0
20/10:30am 7.6 5.0 6.2 91 0.6 WSW 9 15 5 8 1026.5 1026.7 0.0
20/10:00am 7.5 4.6 6.3 92 0.5 W 11 15 6 8 1026.4 1026.6 0.0
20/09:30am 7.4 4.5 6.5 94 0.4 WSW 11 15 6 8 1026.5 1026.7 0.0
20/09:00am 7.1 5.8 6.2 94 0.4 W 2 7 1 4 1026.4 1026.6 1.2
20/08:30am 6.9 5.3 6.2 95 0.3 W 4 9 2 5 1026.3 1026.5 1.2
20/08:00am 6.8 3.8 5.9 94 0.4 W 11 15 6 8 1026.2 1026.4 1.0
20/07:30am 6.6 3.9 5.7 94 0.4 NW 9 11 5 6 1026.0 1026.2 1.0
20/07:00am 6.2 3.8 5.3 94 0.4 NW 7 9 4 5 1025.8 1026.0 1.0
20/06:30am 6.4 3.7 5.4 93 0.4 NW 9 13 5 7 1025.6 1025.8 1.0
20/06:00am 7.0 4.0 5.8 92 0.5 WNW 11 15 6 8 1025.5 1025.7 1.0
20/05:30am 6.8 4.1 5.6 92 0.5 WNW 9 13 5 7 1025.3 1025.5 1.0
20/05:00am 6.6 3.5 5.6 93 0.4 W 11 15 6 8 1025.3 1025.5 1.0
20/04:30am 6.7 3.3 5.7 93 0.4 WNW 13 15 7 8 1025.3 1025.5 1.0
20/04:00am 7.0 4.3 5.6 91 0.6 NW 9 13 5 7 1025.4 1025.6 1.0
20/03:30am 7.0 4.3 5.8 92 0.5 NW 9 11 5 6 1025.4 1025.6 1.0
20/03:00am 6.9 4.2 5.8 93 0.5 NW 9 11 5 6 1025.7 1025.9 1.0
20/02:30am 6.7 4.0 5.8 94 0.4 NW 9 11 5 6 1025.7 1025.9 1.0
20/02:00am 6.4 4.3 5.7 95 0.3 NW 6 9 3 5 1025.7 1025.9 1.0
20/01:30am 6.8 4.6 6.1 95 0.3 NW 7 9 4 5 1025.9 1026.1 0.8
20/01:00am 6.5 4.2 5.5 93 0.4 NW 7 9 4 5 1025.9 1026.1 0.8
20/12:30am 7.3 5.1 6.2 93 0.5 NW 7 9 4 5 1026.1 1026.3 0.8
20/12:00am 7.2 4.6 6.1 93 0.5 WNW 9 13 5 7 1026.1 1026.3 0.8
 
Date/Time
EST
Temp
°C
App
Temp
°C
Dew
Point
°C
Rel
Hum
%
Delta-T
°C
Wind Press
QNH
hPa
Press
MSL
hPa
Rain since
9am
mm
Dir  Spd
km/h
Gust
km/h
Spd
kts
Gust
kts
19/11:30pm 7.2 4.6 6.3 94 0.4 W 9 11 5 6 1026.2 1026.4 0.8
19/11:00pm 7.3 5.2 6.6 95 0.3 W 7 9 4 5 1026.3 1026.5 0.8
19/10:30pm 7.4 6.2 6.5 94 0.4 W 2 7 1 4 1026.4 1026.6 0.6
19/10:00pm 7.1 4.8 5.9 92 0.5 W 7 7 4 4 1026.3 1026.5 0.2
19/09:30pm 7.2 5.5 6.0 92 0.5 W 4 7 2 4 1026.3 1026.5 0.2
19/09:00pm 7.6 4.6 6.1 90 0.7 W 11 13 6 7 1026.2 1026.4 0.2
19/08:30pm 7.7 5.1 6.2 90 0.7 WSW 9 11 5 6 1026.3 1026.5 0.2
19/08:00pm 7.1 4.4 5.4 89 0.8 WSW 9 11 5 6 1026.3 1026.5 0.2
19/07:30pm 7.9 5.3 5.9 87 0.9 WSW 9 11 5 6 1026.3 1026.5 0.2
19/07:00pm 8.4 5.9 6.5 88 0.9 WSW 9 11 5 6 1026.2 1026.4 0.2
19/06:30pm 8.3 5.7 6.1 86 1.0 WSW 9 9 5 5 1026.0 1026.2 0.2
19/06:00pm 8.6 6.1 6.4 86 1.0 WSW 9 11 5 6 1025.9 1026.1 0.2
19/05:30pm 8.7 6.1 6.3 85 1.1 WSW 9 11 5 6 1025.9 1026.1 0.2
19/05:00pm 9.1 4.9 5.8 80 1.5 SSW 17 24 9 13 1025.9 1026.1 0.0
19/04:30pm 9.9 7.2 5.7 75 1.9 SW 9 13 5 7 1025.9 1026.1 0.0
19/04:00pm 9.9 6.5 6.1 77 1.8 WSW 13 17 7 9 1025.8 1026.0 0.0
19/03:30pm 10.0 6.1 5.4 73 2.1 SW 15 20 8 11 1025.7 1025.9 0.0
19/03:00pm 10.2 6.7 5.4 72 2.2 SSW 13 19 7 10 1025.7 1025.9 0.0
19/02:30pm 9.8 6.4 6.0 77 1.8 WSW 13 17 7 9 1025.6 1025.8 0.0
19/02:00pm 9.2 4.4 7.2 87 0.9 SSW 22 28 12 15 1025.7 1025.9 0.0
19/01:30pm 11.4 8.0 5.9 69 2.6 WSW 13 19 7 10 1025.8 1026.0 0.0
19/01:00pm 10.7 6.9 5.9 72 2.2 W 15 20 8 11 1026.0 1026.2 0.0
19/12:30pm 9.3 5.9 5.7 78 1.6 WSW 13 20 7 11 1026.2 1026.4 0.0
19/12:00pm 9.5 5.4 6.2 80 1.5 SW 17 26 9 14 1026.4 1026.6 0.0
19/11:30am 9.4 5.5 5.2 75 1.9 WSW 15 19 8 10 1026.6 1026.8 0.0
19/11:00am 9.5 5.7 5.9 78 1.6 WSW 15 20 8 11 1026.6 1026.8 0.0
19/10:30am 8.8 5.9 4.8 76 1.8 S 9 17 5 9 1026.5 1026.7 0.0
19/10:00am 8.3 4.0 5.1 80 1.4 SW 17 20 9 11 1026.5 1026.7 0.0
19/09:30am 7.9 4.6 4.8 81 1.4 WSW 11 19 6 10 1026.0 1026.2 0.0
19/09:00am 6.8 3.8 4.1 83 1.2 WSW 9 11 5 6 1026.1 1026.3 1.6
19/08:30am 7.0 3.3 4.5 84 1.1 W 13 17 7 9 1025.6 1025.8 1.6
19/08:00am 6.3 2.2 4.5 88 0.8 W 15 20 8 11 1025.3 1025.5 1.6
19/07:30am 6.1 2.7 3.8 85 1.0 W 11 17 6 9 1025.1 1025.3 1.6
19/07:00am 6.0 1.8 3.7 85 1.0 W 15 20 8 11 1024.7 1024.8 1.6
19/06:30am 6.0 1.0 3.7 85 1.0 WNW 19 24 10 13 1024.2 1024.3 1.6
19/06:00am 5.9 1.3 3.9 87 0.8 W 17 24 9 13 1023.9 1024.0 1.6
19/05:30am 5.8 1.9 3.5 85 1.0 W 13 17 7 9 1023.6 1023.7 1.6
19/05:00am 5.8 1.6 3.6 86 0.9 WNW 15 20 8 11 1023.4 1023.5 1.6
19/04:30am 5.5 1.3 3.7 88 0.8 WNW 15 19 8 10 1023.3 1023.4 1.6
19/04:00am 5.3 1.4 3.5 88 0.7 WNW 13 19 7 10 1023.4 1023.5 1.6
19/03:30am 5.6 1.7 3.4 86 0.9 WNW 13 17 7 9 1023.4 1023.5 1.6
19/03:00am 5.3 1.1 3.6 89 0.7 WNW 15 17 8 9 1023.4 1023.5 1.6
19/02:30am 5.6 1.4 3.6 87 0.8 WNW 15 20 8 11 1023.3 1023.4 1.6
19/02:00am 5.5 1.6 3.5 87 0.8 W 13 15 7 8 1023.4 1023.5 1.6
19/01:30am 6.4 2.3 4.2 86 0.9 W 15 20 8 11 1023.4 1023.5 1.6
19/01:00am 6.3 2.2 4.1 86 0.9 WNW 15 24 8 13 1023.2 1023.3 1.6
19/12:30am 5.9 1.3 3.6 85 1.0 WNW 17 20 9 11 1023.2 1023.3 1.6
19/12:00am 5.9 1.3 3.7 86 0.9 WNW 17 20 9 11 1023.2 1023.3 1.6
 
Date/Time
EST
Temp
°C
App
Temp
°C
Dew
Point
°C
Rel
Hum
%
Delta-T
°C
Wind Press
QNH
hPa
Press
MSL
hPa
Rain since
9am
mm
Dir  Spd
km/h
Gust
km/h
Spd
kts
Gust
kts
18/11:30pm 6.3 1.7 3.8 84 1.1 W 17 20 9 11 1023.2 1023.3 1.6
18/11:00pm 6.4 1.8 3.9 84 1.1 W 17 22 9 12 1023.0 1023.1 1.6
18/10:30pm 6.7 1.6 4.2 84 1.1 W 20 24 11 13 1022.9 1023.0 1.6
18/10:00pm 6.9 1.8 4.2 83 1.2 W 20 30 11 16 1022.7 1022.8 1.6
18/09:30pm 7.1 1.7 4.4 83 1.2 W 22 30 12 16 1022.5 1022.6 1.6
18/09:00pm 7.2 2.1 4.3 82 1.3 W 20 24 11 13 1022.3 1022.4 1.6
18/08:30pm 7.2 2.2 4.5 83 1.2 W 20 24 11 13 1022.0 1022.1 1.6
18/08:00pm 7.4 3.0 5.0 85 1.1 W 17 22 9 12 1021.7 1021.8 1.6
18/07:30pm 7.2 3.6 5.0 86 1.0 WNW 13 17 7 9 1021.6 1021.7 1.6
18/07:00pm 7.2 3.6 4.9 85 1.0 W 13 19 7 10 1021.2 1021.3 1.6
18/06:30pm 7.6 3.4 5.6 87 0.9 WNW 17 19 9 10 1020.9 1021.0 1.6
18/06:00pm 8.0 4.2 5.8 86 1.0 W 15 20 8 11 1020.5 1020.6 1.6
18/05:30pm 8.3 4.5 5.9 85 1.1 W 15 20 8 11 1020.3 1020.4 1.4
18/05:00pm 8.7 5.5 7.0 89 0.8 WNW 13 17 7 9 1020.0 1020.1 1.4
18/04:30pm 8.6 5.8 7.1 90 0.7 WNW 11 15 6 8 1019.8 1019.9 1.4
18/04:00pm 8.4 5.2 7.0 91 0.7 W 13 15 7 8 1019.6 1019.7 1.4
18/03:30pm 8.7 4.3 7.5 92 0.6 WSW 20 28 11 15 1019.5 1019.6 1.2
18/03:00pm 8.7 2.2 6.7 87 0.9 SW 30 37 16 20 1019.3 1019.4 0.8
18/02:30pm 9.9 2.2 7.0 82 1.4 WSW 37 46 20 25 1018.6 1018.7 0.6
18/02:29pm 10.0 2.3 7.1 82 1.4 WSW 37 56 20 30 1018.7 1018.8 0.6
18/02:00pm 9.5 0.7 7.1 85 1.1 WSW 43 57 23 31 1018.2 1018.3 0.6
18/01:43pm 10.2 4.9 6.9 80 1.6 WSW 24 56 13 30 1017.9 1018.0 0.6
18/01:30pm 11.7 7.0 7.6 76 2.0 W 22 32 12 17 1017.7 1017.8 0.2
18/01:00pm 11.3 6.0 7.0 75 2.1 W 24 33 13 18 1017.6 1017.7 0.2
18/12:30pm 11.1 6.6 6.8 75 2.0 WNW 20 30 11 16 1017.6 1017.7 0.2
18/12:00pm 12.3 7.5 7.2 71 2.5 WNW 22 39 12 21 1017.5 1017.6 0.2
18/11:30am 11.4 8.1 7.9 79 1.7 NNW 15 24 8 13 1017.7 1017.8 0.2
18/11:00am 10.4 6.1 7.8 84 1.3 NNW 20 26 11 14 1017.8 1017.9 0.2
18/10:30am 10.3 6.6 8.1 86 1.1 NNW 17 20 9 11 1018.0 1018.1 0.2
18/10:00am 10.6 6.8 7.5 81 1.5 NNW 17 28 9 15 1017.8 1017.9 0.0
18/09:30am 10.5 6.7 7.6 82 1.4 N 17 20 9 11 1017.4 1017.5 0.0
18/09:00am 10.2 6.3 7.3 82 1.4 NNW 17 24 9 13 1017.3 1017.4 0.0
18/08:30am 9.9 5.5 7.2 83 1.3 N 20 30 11 16 1016.9 1017.0 0.0
18/08:00am 9.6 4.8 7.2 85 1.1 N 22 33 12 18 1016.4 1016.5 0.0
18/07:30am 9.7 4.8 7.1 84 1.2 N 22 30 12 16 1016.4 1016.5 0.0
18/07:00am 9.7 4.1 7.0 83 1.3 N 26 37 14 20 1016.1 1016.2 0.0
18/06:30am 9.7 4.5 7.1 84 1.2 N 24 30 13 16 1016.1 1016.2 0.0
18/06:00am 10.0 4.1 7.3 83 1.3 N 28 39 15 21 1016.0 1016.1 0.0
18/05:30am 10.0 4.2 7.8 86 1.1 N 28 39 15 21 1015.9 1016.0 0.0
18/05:00am 10.4 4.1 7.6 83 1.3 N 30 43 16 23 1016.4 1016.5 0.0
18/04:30am 10.4 4.9 7.6 83 1.3 N 26 35 14 19 1016.9 1017.0 0.0
18/04:00am 10.5 5.4 7.7 83 1.3 N 24 33 13 18 1017.2 1017.3 0.0
18/03:30am 10.7 5.3 8.1 84 1.3 N 26 41 14 22 1017.3 1017.4 0.0
18/03:00am 10.7 4.2 8.1 84 1.3 N 32 44 17 24 1016.9 1017.0 0.0
18/02:30am 10.9 4.5 8.5 85 1.2 N 32 46 17 25 1017.4 1017.5 0.0
18/02:04am 11.0 5.4 8.6 85 1.2 N 28 46 15 25 1017.2 1017.3 0.0
18/02:00am 10.9 5.2 8.5 85 1.2 N 28 39 15 21 1017.2 1017.3 0.0
18/01:30am 10.7 6.6 8.5 86 1.1 N 20 30 11 16 1017.4 1017.5 0.0
18/01:00am 10.5 6.6 8.6 88 0.9 N 19 26 10 14 1017.9 1018.0 0.0
18/12:30am 10.3 7.0 8.2 87 1.0 N 15 20 8 11 1018.4 1018.5 0.0
18/12:00am 10.4 6.2 8.2 86 1.1 N 20 28 11 15 1018.4 1018.5 0.0
 
Date/Time
EST
Temp
°C
App
Temp
°C
Dew
Point
°C
Rel
Hum
%
Delta-T
°C
Wind Press
QNH
hPa
Press
MSL
hPa
Rain since
9am
mm
Dir  Spd
km/h
Gust
km/h
Spd
kts
Gust
kts
17/11:30pm 10.4 6.1 8.0 85 1.2 N 20 30 11 16 1018.6 1018.7 0.0
17/11:00pm 10.3 6.3 8.2 87 1.0 N 19 26 10 14 1018.9 1019.0 0.0
17/10:30pm 10.3 5.4 8.4 88 0.9 N 24 32 13 17 1019.0 1019.1 0.0

Other formats

Comma delimited format used in spreadsheet applications
http://www.bom.gov.au/fwo/IDV60801/IDV60801.95866.axf

JavaScript Object Notation format (JSON) in row-major order
http://www.bom.gov.au/fwo/IDV60801/IDV60801.95866.json

Data quality

Most of these data are generated automatically and are frequently updated. Quality checks on data are not normally performed. It is possible for incorrect values to appear. Refer to information at About Latest Weather Observations and please check the disclaimer before using these data.